createdAt,value
2023-03-22T00:00:00.324Z,83.90
2023-03-22T00:02:27.308Z,83.70
2023-03-22T00:04:54.467Z,83.70
2023-03-22T00:07:21.488Z,84.00
2023-03-22T00:09:48.345Z,84.10
2023-03-22T00:12:15.451Z,83.90
2023-03-22T00:14:42.970Z,84.50
2023-03-22T00:17:10.013Z,84.40
2023-03-22T00:19:37.464Z,84.90
2023-03-22T00:22:06.332Z,84.70
2023-03-22T00:24:33.347Z,85.00
2023-03-22T00:27:00.989Z,85.20
2023-03-22T00:29:28.047Z,85.30
2023-03-22T00:31:56.107Z,85.30
2023-03-22T00:34:23.214Z,85.60
2023-03-22T00:36:51.987Z,85.80
2023-03-22T00:39:18.964Z,84.60
2023-03-22T00:41:45.891Z,84.80
2023-03-22T00:44:12.892Z,84.50
2023-03-22T00:46:39.857Z,85.00
2023-03-22T00:49:06.720Z,85.70
2023-03-22T00:51:33.519Z,86.30
2023-03-22T00:54:00.301Z,85.70
2023-03-22T00:56:28.823Z,85.60
2023-03-22T00:58:55.914Z,85.60
2023-03-22T01:01:22.733Z,85.60
2023-03-22T01:03:50.750Z,85.40
2023-03-22T01:06:17.712Z,85.60
2023-03-22T01:08:44.527Z,85.80
2023-03-22T01:11:11.365Z,86.20
2023-03-22T01:13:38.647Z,86.10
2023-03-22T01:16:06.292Z,86.20
2023-03-22T01:18:33.360Z,86.10
2023-03-22T01:21:00.426Z,86.30
2023-03-22T01:23:27.201Z,86.70
2023-03-22T01:25:53.940Z,86.60
2023-03-22T01:28:20.676Z,86.70
2023-03-22T01:30:47.440Z,86.60
2023-03-22T01:33:14.188Z,86.80
2023-03-22T01:35:41.023Z,86.80
2023-03-22T01:38:07.822Z,86.60
2023-03-22T01:40:34.886Z,87.00
2023-03-22T01:43:01.687Z,86.70
2023-03-22T01:45:39.634Z,86.80
2023-03-22T01:48:26.775Z,87.10
2023-03-22T01:50:59.811Z,86.60
2023-03-22T01:53:26.793Z,86.80
2023-03-22T01:55:54.460Z,86.60
2023-03-22T01:58:21.313Z,86.70
2023-03-22T02:00:49.601Z,86.70
2023-03-22T02:03:19.916Z,86.80
2023-03-22T02:05:47.646Z,86.50
2023-03-22T02:08:15.081Z,86.40
2023-03-22T02:10:42.602Z,86.70
2023-03-22T02:13:17.688Z,87.30
2023-03-22T02:16:00.133Z,87.10
2023-03-22T02:18:33.218Z,87.20
2023-03-22T02:21:05.956Z,87.40
2023-03-22T02:24:10.303Z,88.30
2023-03-22T02:26:59.500Z,87.70
2023-03-22T02:29:54.268Z,87.10
2023-03-22T02:32:46.298Z,87.30
2023-03-22T02:35:32.894Z,87.30
2023-03-22T02:38:22.915Z,87.60
2023-03-22T02:41:11.281Z,87.80
2023-03-22T02:43:47.178Z,87.80
2023-03-22T02:46:38.915Z,87.30
2023-03-22T02:49:14.548Z,87.80
2023-03-22T02:51:48.944Z,88.00
2023-03-22T02:54:28.791Z,88.70
2023-03-22T02:57:10.572Z,89.00
2023-03-22T02:59:41.012Z,88.10
2023-03-22T03:02:11.886Z,87.40
2023-03-22T03:04:44.591Z,88.20
2023-03-22T03:07:16.841Z,88.30
2023-03-22T03:09:44.491Z,87.60
2023-03-22T03:12:30.309Z,87.50
2023-03-22T03:14:57.452Z,87.40
2023-03-22T03:17:33.729Z,88.10
2023-03-22T03:20:22.097Z,87.60
2023-03-22T03:23:13.837Z,88.40
2023-03-22T03:25:49.655Z,88.10
2023-03-22T03:28:38.357Z,88.20
2023-03-22T03:31:32.194Z,88.50
2023-03-22T03:34:20.414Z,88.30
2023-03-22T03:37:22.044Z,88.40
2023-03-22T03:40:09.883Z,88.30
2023-03-22T03:42:47.961Z,88.60
2023-03-22T03:45:17.018Z,89.00
2023-03-22T03:47:47.039Z,88.70
2023-03-22T03:50:16.312Z,88.90
2023-03-22T03:52:43.353Z,88.90
2023-03-22T03:55:10.650Z,89.00
2023-03-22T03:57:37.502Z,88.80
2023-03-22T04:00:05.802Z,89.10
2023-03-22T04:02:33.190Z,89.10
2023-03-22T04:05:00.032Z,89.10
2023-03-22T04:07:27.377Z,89.50
2023-03-22T04:09:54.224Z,90.10
2023-03-22T04:12:21.015Z,90.60
2023-03-22T04:14:47.996Z,90.70
2023-03-22T04:17:14.837Z,91.10
2023-03-22T04:19:42.271Z,91.10
2023-03-22T04:22:14.658Z,91.20
2023-03-22T04:24:41.892Z,90.90
2023-03-22T04:27:08.692Z,91.40
2023-03-22T04:29:36.338Z,91.70
2023-03-22T04:32:03.968Z,91.70
2023-03-22T04:34:31.772Z,91.60
2023-03-22T04:37:02.584Z,91.60
2023-03-22T04:39:31.836Z,92.00
2023-03-22T04:41:58.734Z,92.00
2023-03-22T04:44:25.769Z,91.80
2023-03-22T04:46:52.645Z,91.70
2023-03-22T04:49:19.699Z,91.70
2023-03-22T04:51:46.676Z,91.70
2023-03-22T04:54:13.750Z,91.70
2023-03-22T04:56:40.786Z,91.30
2023-03-22T04:59:07.792Z,91.30
2023-03-22T05:01:37.933Z,91.20
2023-03-22T05:04:04.760Z,91.30
2023-03-22T05:06:34.485Z,91.50
2023-03-22T05:09:01.516Z,91.20
2023-03-22T05:11:28.502Z,91.20
2023-03-22T05:13:55.767Z,90.90
2023-03-22T05:16:22.695Z,90.80
2023-03-22T05:18:54.463Z,90.50
2023-03-22T05:21:28.378Z,90.20
2023-03-22T05:23:57.235Z,90.30
2023-03-22T05:26:26.276Z,90.40
2023-03-22T05:28:54.548Z,90.00
2023-03-22T05:31:21.957Z,89.60
2023-03-22T05:33:50.522Z,89.40
2023-03-22T05:36:23.032Z,89.00
2023-03-22T05:38:50.086Z,88.90
2023-03-22T05:41:17.069Z,88.70
2023-03-22T05:43:43.995Z,88.40
2023-03-22T05:46:12.119Z,88.70
2023-03-22T05:48:39.727Z,88.60
2023-03-22T05:51:08.406Z,88.40
2023-03-22T05:53:37.397Z,88.10
2023-03-22T05:56:04.550Z,88.60
2023-03-22T05:58:33.937Z,88.80
2023-03-22T06:01:12.266Z,88.80
2023-03-22T06:03:40.307Z,88.50
2023-03-22T06:06:10.794Z,88.30
2023-03-22T06:08:40.995Z,88.10
2023-03-22T06:11:08.311Z,87.70
2023-03-22T06:13:35.444Z,87.50
2023-03-22T06:16:03.802Z,87.20
2023-03-22T06:18:31.307Z,87.30
2023-03-22T06:20:59.519Z,87.60
2023-03-22T06:23:26.503Z,87.30
2023-03-22T06:25:54.696Z,87.70
2023-03-22T06:28:21.791Z,87.80
2023-03-22T06:30:48.820Z,87.60
2023-03-22T06:33:15.780Z,87.70
2023-03-22T06:35:42.666Z,87.70
2023-03-22T06:38:09.665Z,87.60
2023-03-22T06:40:36.525Z,87.30
2023-03-22T06:43:06.963Z,87.10
2023-03-22T06:45:34.175Z,87.30
2023-03-22T06:48:01.299Z,87.40
2023-03-22T06:50:29.440Z,87.30
2023-03-22T06:52:56.769Z,87.00
2023-03-22T06:55:25.329Z,87.40
2023-03-22T06:57:53.326Z,87.50
2023-03-22T07:00:21.786Z,86.90
2023-03-22T07:02:49.989Z,86.80
2023-03-22T07:05:18.695Z,86.80
2023-03-22T07:07:46.420Z,87.00
2023-03-22T07:10:13.697Z,86.90
2023-03-22T07:12:40.664Z,87.00
2023-03-22T07:15:08.260Z,87.20
2023-03-22T07:17:35.023Z,87.10
2023-03-22T07:20:02.367Z,86.50
2023-03-22T07:22:29.401Z,86.50
2023-03-22T07:24:59.373Z,86.40
2023-03-22T07:27:27.410Z,86.40
2023-03-22T07:29:54.359Z,86.70
2023-03-22T07:32:21.338Z,86.80
2023-03-22T07:34:48.238Z,86.60
2023-03-22T07:37:15.424Z,86.40
2023-03-22T07:39:42.243Z,86.10
2023-03-22T07:42:09.620Z,85.80
2023-03-22T07:44:36.537Z,85.30
2023-03-22T07:47:03.425Z,85.00
2023-03-22T07:49:31.260Z,84.50
2023-03-22T07:51:58.486Z,84.50
2023-03-22T07:54:33.280Z,83.40
2023-03-22T07:57:01.537Z,83.10
2023-03-22T07:59:28.284Z,82.80
2023-03-22T08:01:55.105Z,82.70
2023-03-22T08:04:22.635Z,82.90
2023-03-22T08:06:50.103Z,82.30
2023-03-22T08:09:17.123Z,82.90
2023-03-22T08:11:44.003Z,82.70
2023-03-22T08:14:10.984Z,82.90
2023-03-22T08:16:38.543Z,82.20
2023-03-22T08:19:05.642Z,82.00
2023-03-22T08:21:32.449Z,82.40
2023-03-22T08:23:59.488Z,82.50
2023-03-22T08:26:27.155Z,82.20
2023-03-22T08:28:54.019Z,82.30
2023-03-22T08:31:20.920Z,81.90
2023-03-22T08:33:47.815Z,81.60
2023-03-22T08:36:19.375Z,81.70
2023-03-22T08:38:46.100Z,81.20
2023-03-22T08:41:13.563Z,81.30
2023-03-22T08:43:40.307Z,81.40
2023-03-22T08:46:07.216Z,81.00
2023-03-22T08:48:35.842Z,80.70
2023-03-22T08:51:02.673Z,80.30
2023-03-22T08:53:29.629Z,80.60
2023-03-22T08:55:58.243Z,80.50
2023-03-22T08:58:25.170Z,80.70
2023-03-22T09:00:52.252Z,80.40
2023-03-22T09:03:19.233Z,80.20
2023-03-22T09:05:46.148Z,80.10
2023-03-22T09:08:19.257Z,80.80
2023-03-22T09:10:52.666Z,81.00
2023-03-22T09:13:19.893Z,81.00
2023-03-22T09:15:46.861Z,80.60
2023-03-22T09:18:13.973Z,81.10
2023-03-22T09:20:42.346Z,80.80
2023-03-22T09:23:09.498Z,80.60
2023-03-22T09:25:36.721Z,80.10
2023-03-22T09:28:04.285Z,80.20
2023-03-22T09:30:31.390Z,80.50
2023-03-22T09:32:58.228Z,80.90
2023-03-22T09:35:25.167Z,80.50
2023-03-22T09:37:54.545Z,80.30
2023-03-22T09:40:26.040Z,79.80
2023-03-22T09:42:55.591Z,79.70
2023-03-22T09:45:30.617Z,79.30
2023-03-22T09:47:57.717Z,79.40
2023-03-22T09:50:27.330Z,79.80
2023-03-22T09:52:54.325Z,80.00
2023-03-22T09:55:23.289Z,79.80
2023-03-22T09:57:54.414Z,79.60
2023-03-22T10:00:33.892Z,79.80
2023-03-22T10:03:20.107Z,79.90
2023-03-22T10:05:53.618Z,80.00
2023-03-22T10:08:21.505Z,80.50
2023-03-22T10:10:49.539Z,80.60
2023-03-22T10:13:20.332Z,80.90
2023-03-22T10:15:49.211Z,81.20
2023-03-22T10:18:25.204Z,81.50
2023-03-22T10:21:07.331Z,81.40
2023-03-22T10:23:45.135Z,81.10
2023-03-22T10:26:24.449Z,81.40
2023-03-22T10:29:02.775Z,81.10
2023-03-22T10:31:31.405Z,80.10
2023-03-22T10:34:00.897Z,78.90
2023-03-22T10:36:31.741Z,78.40
2023-03-22T10:39:22.154Z,78.30
2023-03-22T10:41:49.801Z,79.00
2023-03-22T10:44:18.418Z,79.80
2023-03-22T10:46:47.198Z,80.30
2023-03-22T10:49:19.069Z,80.50
2023-03-22T10:51:50.542Z,80.70
2023-03-22T10:54:19.928Z,80.80
2023-03-22T10:56:47.386Z,80.50
2023-03-22T10:59:33.405Z,80.40
2023-03-22T11:02:01.860Z,80.00
2023-03-22T11:04:32.096Z,80.90
2023-03-22T11:06:59.514Z,81.00
2023-03-22T11:09:27.179Z,80.70
2023-03-22T11:11:58.695Z,79.90
2023-03-22T11:14:34.230Z,80.40
2023-03-22T11:17:13.642Z,81.00
2023-03-22T11:19:45.219Z,82.90
2023-03-22T11:22:27.649Z,83.10
2023-03-22T11:24:56.092Z,83.80
2023-03-22T11:27:26.237Z,83.90
2023-03-22T11:30:08.312Z,84.90
2023-03-22T11:32:39.676Z,85.00
2023-03-22T11:35:13.242Z,84.90
2023-03-22T11:37:45.318Z,85.10
2023-03-22T11:40:21.264Z,84.60
2023-03-22T11:42:52.374Z,85.40
2023-03-22T11:45:27.492Z,85.80
2023-03-22T11:47:57.013Z,86.60
2023-03-22T11:50:29.088Z,86.50
2023-03-22T11:52:57.570Z,87.10
2023-03-22T11:55:26.848Z,87.30
2023-03-22T11:57:56.322Z,86.90
2023-03-22T12:00:28.289Z,87.40
2023-03-22T12:03:03.824Z,87.80
2023-03-22T12:05:32.255Z,88.10
2023-03-22T12:08:01.180Z,88.50
2023-03-22T12:10:38.746Z,88.90
2023-03-22T12:13:17.948Z,89.00
2023-03-22T12:15:49.788Z,89.50
2023-03-22T12:18:48.820Z,89.50
2023-03-22T12:21:16.613Z,89.90
2023-03-22T12:23:43.449Z,90.40
2023-03-22T12:26:10.436Z,91.00
2023-03-22T12:28:54.515Z,91.00
2023-03-22T12:31:23.385Z,91.00
2023-03-22T12:34:16.543Z,91.00
2023-03-22T12:36:51.815Z,91.40
2023-03-22T12:39:26.974Z,91.30
2023-03-22T12:41:58.317Z,91.40
2023-03-22T12:44:31.817Z,91.80
2023-03-22T12:47:05.235Z,91.70
2023-03-22T12:49:35.352Z,91.90
2023-03-22T12:52:14.204Z,91.80
2023-03-22T12:54:41.450Z,92.10
2023-03-22T12:57:08.654Z,92.60
2023-03-22T12:59:36.041Z,92.90
2023-03-22T13:02:18.078Z,93.30
2023-03-22T13:04:44.777Z,93.40
2023-03-22T13:07:11.460Z,93.50
2023-03-22T13:09:40.849Z,93.70
2023-03-22T13:12:16.896Z,93.70
2023-03-22T13:14:52.783Z,94.00
2023-03-22T13:17:22.287Z,93.40
2023-03-22T13:20:01.186Z,93.30
2023-03-22T13:22:27.952Z,92.60
2023-03-22T13:25:06.396Z,92.80
2023-03-22T13:27:38.032Z,93.00
2023-03-22T13:30:10.640Z,93.50
2023-03-22T13:32:37.662Z,93.50
2023-03-22T13:35:05.204Z,93.00
2023-03-22T13:37:37.990Z,93.30
2023-03-22T13:40:12.570Z,93.20
2023-03-22T13:42:40.312Z,93.00
2023-03-22T13:45:08.887Z,93.20
2023-03-22T13:47:35.989Z,93.40
2023-03-22T13:50:07.375Z,93.30
2023-03-22T13:52:36.827Z,92.80
2023-03-22T13:55:04.304Z,92.80
2023-03-22T13:57:47.500Z,92.90
2023-03-22T14:00:32.832Z,92.60
2023-03-22T14:03:14.585Z,92.60
2023-03-22T14:05:42.422Z,92.50
2023-03-22T14:08:18.610Z,92.30
2023-03-22T14:10:47.207Z,92.20
2023-03-22T14:13:16.467Z,92.00
2023-03-22T14:15:57.580Z,92.00
2023-03-22T14:18:27.175Z,91.60
2023-03-22T14:21:01.596Z,91.60
